createdAt,value
2018-07-27T00:01:43.636Z,11.53
2018-07-27T00:04:11.982Z,11.93
2018-07-27T00:06:40.220Z,11.70
2018-07-27T00:09:10.413Z,11.47
2018-07-27T00:11:38.795Z,11.60
2018-07-27T00:14:07.079Z,12.00
2018-07-27T00:16:35.442Z,10.10
2018-07-27T00:19:03.940Z,10.63
2018-07-27T00:21:32.343Z,11.30
2018-07-27T00:24:00.692Z,10.30
2018-07-27T00:26:28.983Z,11.43
2018-07-27T00:28:57.248Z,9.97
2018-07-27T00:31:25.520Z,10.20
2018-07-27T00:33:53.816Z,10.77
2018-07-27T00:36:22.220Z,11.23
2018-07-27T00:38:50.475Z,9.73
2018-07-27T00:41:18.756Z,10.90
2018-07-27T00:43:46.843Z,11.63
2018-07-27T00:46:14.850Z,11.20
2018-07-27T00:48:43.150Z,11.53
2018-07-27T00:51:11.404Z,9.37
2018-07-27T00:53:39.435Z,10.27
2018-07-27T00:56:07.764Z,9.93
2018-07-27T00:58:36.071Z,9.80
2018-07-27T01:01:04.357Z,9.27
2018-07-27T01:03:32.358Z,8.90
2018-07-27T01:06:00.777Z,9.97
2018-07-27T01:08:29.101Z,9.43
2018-07-27T01:10:57.383Z,9.90
2018-07-27T01:13:25.646Z,9.23
2018-07-27T01:15:53.943Z,9.63
2018-07-27T01:18:22.260Z,9.27
2018-07-27T01:20:50.542Z,9.60
2018-07-27T01:23:18.843Z,9.63
2018-07-27T01:25:46.876Z,9.53
2018-07-27T01:28:15.175Z,9.70
2018-07-27T01:30:43.456Z,8.67
2018-07-27T01:33:11.727Z,9.90
2018-07-27T01:35:40.018Z,9.40
2018-07-27T01:38:08.281Z,9.93
2018-07-27T01:40:36.563Z,9.67
2018-07-27T01:43:04.892Z,9.63
2018-07-27T01:45:33.195Z,9.47
2018-07-27T01:48:01.508Z,10.13
2018-07-27T01:50:29.775Z,9.87
2018-07-27T01:52:58.080Z,10.87
2018-07-27T01:55:26.388Z,10.67
2018-07-27T01:57:54.415Z,10.83
2018-07-27T02:00:22.741Z,11.57
2018-07-27T02:02:51.028Z,11.03
2018-07-27T02:05:19.310Z,11.73
2018-07-27T02:07:47.935Z,11.47
2018-07-27T02:10:15.959Z,12.53
2018-07-27T02:12:44.588Z,11.27
2018-07-27T02:15:12.924Z,11.97
2018-07-27T02:17:41.239Z,11.70
2018-07-27T02:20:09.562Z,12.47
2018-07-27T02:22:37.906Z,12.00
2018-07-27T02:25:06.364Z,12.57
2018-07-27T02:27:34.405Z,12.10
2018-07-27T02:30:04.264Z,12.33
2018-07-27T02:32:32.557Z,12.73
2018-07-27T02:35:00.547Z,11.30
2018-07-27T02:37:28.620Z,13.63
2018-07-27T02:39:56.681Z,11.77
2018-07-27T02:42:24.979Z,12.43
2018-07-27T02:44:53.277Z,12.20
2018-07-27T02:47:21.560Z,11.70
2018-07-27T02:49:49.999Z,11.10
2018-07-27T02:52:18.308Z,12.40
2018-07-27T02:54:46.642Z,12.33
2018-07-27T02:57:14.655Z,10.90
2018-07-27T02:59:42.974Z,13.07
2018-07-27T03:02:11.232Z,12.07
2018-07-27T03:04:40.094Z,11.07
2018-07-27T03:07:08.404Z,12.00
2018-07-27T03:09:36.494Z,10.80
2018-07-27T03:12:04.909Z,11.40
2018-07-27T03:14:33.220Z,10.93
2018-07-27T03:17:01.516Z,11.67
2018-07-27T03:19:29.781Z,11.97
2018-07-27T03:21:58.405Z,9.73
2018-07-27T03:24:26.748Z,11.20
2018-07-27T03:26:55.084Z,9.97
2018-07-27T03:29:23.385Z,11.33
2018-07-27T03:31:51.706Z,10.20
2018-07-27T03:34:20.005Z,10.30
2018-07-27T03:36:48.283Z,9.87
2018-07-27T03:39:16.747Z,11.80
2018-07-27T03:41:45.066Z,10.20
2018-07-27T03:44:13.339Z,11.27
2018-07-27T03:46:41.332Z,11.57
2018-07-27T03:49:09.603Z,10.93
2018-07-27T03:51:37.640Z,10.83
2018-07-27T03:54:06.240Z,11.17
2018-07-27T03:56:34.693Z,10.90
2018-07-27T03:59:03.043Z,11.97
2018-07-27T04:01:31.355Z,11.93
2018-07-27T04:03:59.369Z,12.03
2018-07-27T04:06:27.827Z,10.77
2018-07-27T04:08:56.151Z,11.87
2018-07-27T04:11:24.521Z,12.37
2018-07-27T04:13:53.143Z,12.67
2018-07-27T04:16:21.444Z,11.67
2018-07-27T04:18:49.803Z,12.10
2018-07-27T04:21:18.232Z,12.80
2018-07-27T04:23:46.727Z,12.97
2018-07-27T04:26:15.055Z,10.50
2018-07-27T04:28:43.371Z,12.50
2018-07-27T04:31:11.699Z,12.23
2018-07-27T04:33:39.994Z,13.77
2018-07-27T04:36:08.305Z,11.63
2018-07-27T04:38:36.870Z,12.23
2018-07-27T04:41:05.160Z,13.37
2018-07-27T04:43:33.488Z,13.07
2018-07-27T04:46:01.500Z,11.17
2018-07-27T04:48:29.780Z,12.50
2018-07-27T04:50:58.063Z,11.20
2018-07-27T04:53:26.345Z,11.87
2018-07-27T04:55:54.499Z,12.10
2018-07-27T04:58:22.808Z,11.30
2018-07-27T05:00:50.878Z,13.03
2018-07-27T05:03:19.188Z,11.87
2018-07-27T05:05:47.771Z,12.83
2018-07-27T05:08:16.744Z,11.23
2018-07-27T05:10:49.843Z,12.70
2018-07-27T05:13:19.045Z,11.23
2018-07-27T05:15:48.255Z,10.70
2018-07-27T05:18:17.236Z,12.57
2018-07-27T05:20:45.539Z,11.63
2018-07-27T05:23:13.988Z,10.90
2018-07-27T05:25:42.233Z,10.03
2018-07-27T05:28:10.744Z,12.77
2018-07-27T05:30:39.047Z,12.80
2018-07-27T05:33:07.357Z,11.30
2018-07-27T05:35:35.380Z,10.93
2018-07-27T05:38:03.704Z,11.73
2018-07-27T05:40:32.056Z,9.67
2018-07-27T05:43:00.352Z,9.17
2018-07-27T05:45:28.653Z,9.57
2018-07-27T05:47:56.927Z,11.43
2018-07-27T05:50:25.244Z,10.20
2018-07-27T05:52:53.538Z,9.70
2018-07-27T05:55:21.856Z,9.00
2018-07-27T05:57:49.938Z,9.00
2018-07-27T06:00:18.236Z,8.40
2018-07-27T06:02:46.639Z,8.37
2018-07-27T06:05:14.888Z,9.10
2018-07-27T06:07:42.998Z,7.80
2018-07-27T06:10:11.263Z,7.53
2018-07-27T06:12:39.566Z,9.17
2018-07-27T06:15:07.640Z,7.57
2018-07-27T06:17:35.644Z,8.27
2018-07-27T06:20:04.703Z,7.87
2018-07-27T06:22:32.978Z,8.27
2018-07-27T06:25:01.251Z,7.53
2018-07-27T06:27:29.546Z,7.33
2018-07-27T06:29:58.239Z,6.40
2018-07-27T06:32:26.633Z,7.60
2018-07-27T06:34:54.958Z,7.00
2018-07-27T06:37:23.255Z,7.43
2018-07-27T06:39:51.247Z,6.07
2018-07-27T06:42:19.500Z,6.23
2018-07-27T06:44:47.764Z,6.83
2018-07-27T06:47:16.068Z,6.07
2018-07-27T06:49:44.342Z,6.83
2018-07-27T06:52:12.655Z,6.40
2018-07-27T06:54:40.916Z,6.13
2018-07-27T06:57:09.196Z,6.17
2018-07-27T06:59:37.486Z,5.93
2018-07-27T07:02:05.729Z,6.07
2018-07-27T07:04:34.012Z,5.77
2018-07-27T07:07:02.337Z,4.73
2018-07-27T07:09:30.631Z,5.63
2018-07-27T07:11:58.947Z,5.50
2018-07-27T07:14:27.326Z,5.13
2018-07-27T07:16:55.339Z,5.30
2018-07-27T07:19:23.616Z,5.47
2018-07-27T07:21:51.884Z,4.57
2018-07-27T07:24:20.131Z,4.67
2018-07-27T07:26:48.139Z,4.80
2018-07-27T07:29:16.384Z,5.37
2018-07-27T07:31:44.649Z,4.87
2018-07-27T07:34:12.933Z,4.43
2018-07-27T07:36:41.220Z,4.30
2018-07-27T07:39:11.130Z,4.57
2018-07-27T07:41:40.332Z,4.47
2018-07-27T07:44:09.156Z,5.07
2018-07-27T07:46:38.037Z,5.30
2018-07-27T07:49:07.145Z,5.03
2018-07-27T07:51:36.761Z,4.80
2018-07-27T07:54:14.526Z,5.33
2018-07-27T07:56:57.980Z,5.10
2018-07-27T07:59:26.275Z,5.67
2018-07-27T08:01:57.429Z,5.57
2018-07-27T08:04:37.237Z,5.20
2018-07-27T08:07:06.377Z,4.93
2018-07-27T08:09:34.667Z,4.80
2018-07-27T08:12:02.958Z,5.13
2018-07-27T08:14:31.303Z,4.97
2018-07-27T08:16:59.628Z,4.57
2018-07-27T08:19:27.937Z,4.27
2018-07-27T08:21:56.040Z,5.07
2018-07-27T08:24:24.087Z,5.30
2018-07-27T08:26:54.514Z,4.47
2018-07-27T08:29:24.041Z,4.70
2018-07-27T08:31:53.056Z,4.30
2018-07-27T08:34:21.604Z,5.00
2018-07-27T08:36:50.303Z,4.10
2018-07-27T08:39:22.246Z,4.90
2018-07-27T08:41:50.978Z,4.70
2018-07-27T08:44:21.689Z,4.70
2018-07-27T08:46:49.696Z,4.43
2018-07-27T08:49:17.928Z,5.07
2018-07-27T08:51:46.323Z,4.43
2018-07-27T08:54:14.664Z,4.30
2018-07-27T08:56:55.479Z,4.40
2018-07-27T08:59:23.789Z,5.00
2018-07-27T09:01:52.095Z,4.70
2018-07-27T09:04:20.374Z,5.20
2018-07-27T09:06:48.641Z,4.63
2018-07-27T09:09:18.087Z,4.83
2018-07-27T09:11:46.403Z,4.80
2018-07-27T09:14:14.792Z,4.57
2018-07-27T09:16:43.099Z,4.50
2018-07-27T09:19:11.437Z,3.73
2018-07-27T09:21:40.920Z,4.63
2018-07-27T09:24:09.232Z,4.00
2018-07-27T09:26:37.510Z,4.60
2018-07-27T09:29:05.785Z,4.47
2018-07-27T09:31:34.062Z,4.90
2018-07-27T09:34:02.360Z,4.30
2018-07-27T09:36:30.639Z,4.57
2018-07-27T09:38:58.926Z,3.90
2018-07-27T09:41:27.235Z,4.53
2018-07-27T09:43:55.604Z,3.70
2018-07-27T09:46:23.859Z,3.90
2018-07-27T09:48:52.918Z,3.97
2018-07-27T09:51:22.405Z,3.53
2018-07-27T09:53:50.975Z,3.97
2018-07-27T09:56:19.234Z,4.10
2018-07-27T09:58:47.559Z,3.90
2018-07-27T10:01:22.850Z,4.03
2018-07-27T10:03:51.864Z,4.07
2018-07-27T10:06:20.344Z,4.47
2018-07-27T10:08:51.878Z,4.03
2018-07-27T10:11:20.640Z,4.03
2018-07-27T10:13:48.940Z,3.80
2018-07-27T10:16:17.924Z,4.00
2018-07-27T10:18:46.293Z,3.87
2018-07-27T10:21:14.601Z,3.97
2018-07-27T10:23:42.987Z,4.00
2018-07-27T10:26:11.295Z,3.80
2018-07-27T10:28:39.667Z,4.20
2018-07-27T10:31:07.956Z,4.57
2018-07-27T10:33:36.233Z,3.70
2018-07-27T10:36:04.485Z,3.97
2018-07-27T10:38:32.841Z,4.00
2018-07-27T10:41:01.151Z,3.93
2018-07-27T10:43:29.171Z,4.00
2018-07-27T10:45:57.464Z,3.80
2018-07-27T10:48:25.740Z,4.13
2018-07-27T10:50:54.028Z,4.00
2018-07-27T10:53:22.297Z,4.20
2018-07-27T10:55:50.482Z,4.43
2018-07-27T10:58:18.499Z,4.07
2018-07-27T11:00:46.764Z,4.27
2018-07-27T11:03:15.034Z,3.90
2018-07-27T11:05:43.092Z,4.23
2018-07-27T11:08:11.371Z,4.00
2018-07-27T11:10:39.963Z,3.50
2018-07-27T11:13:08.267Z,3.90
2018-07-27T11:15:36.525Z,3.93
2018-07-27T11:18:06.292Z,3.97
2018-07-27T11:20:34.300Z,4.23
2018-07-27T11:23:02.551Z,4.53
2018-07-27T11:25:31.017Z,4.60
2018-07-27T11:27:59.253Z,4.30
2018-07-27T11:30:27.298Z,3.53
2018-07-27T11:32:55.556Z,4.10
2018-07-27T11:35:24.017Z,4.00
2018-07-27T11:37:52.492Z,4.57
2018-07-27T11:40:20.827Z,4.43
2018-07-27T11:42:49.156Z,4.30
2018-07-27T11:45:17.449Z,4.77
2018-07-27T11:47:45.727Z,4.20
2018-07-27T11:50:14.012Z,4.23
2018-07-27T11:52:42.479Z,4.47
2018-07-27T11:55:10.728Z,4.30
2018-07-27T11:57:39.023Z,4.13
2018-07-27T12:00:07.024Z,4.03
2018-07-27T12:02:35.306Z,5.03
2018-07-27T12:05:03.585Z,4.10
2018-07-27T12:07:31.836Z,4.50
2018-07-27T12:10:00.110Z,4.60
2018-07-27T12:12:28.368Z,3.97
2018-07-27T12:14:56.759Z,4.33
2018-07-27T12:17:24.927Z,4.37
2018-07-27T12:19:52.928Z,4.50
2018-07-27T12:22:21.243Z,4.30
2018-07-27T12:24:49.506Z,5.20
2018-07-27T12:27:17.912Z,4.20
2018-07-27T12:29:46.285Z,3.90
2018-07-27T12:32:14.577Z,3.67
2018-07-27T12:34:42.971Z,4.23
2018-07-27T12:37:11.229Z,3.43
2018-07-27T12:39:39.480Z,4.00
2018-07-27T12:42:07.753Z,4.30
2018-07-27T12:44:36.008Z,4.67
2018-07-27T12:47:04.781Z,4.07
2018-07-27T12:49:33.052Z,3.70
2018-07-27T12:52:01.329Z,4.30
2018-07-27T12:54:29.593Z,3.67
2018-07-27T12:56:57.944Z,4.30
2018-07-27T12:59:26.456Z,3.43
2018-07-27T13:01:54.746Z,4.07
2018-07-27T13:04:23.096Z,3.80
2018-07-27T13:06:51.372Z,3.97
2018-07-27T13:09:19.669Z,4.50
2018-07-27T13:11:48.276Z,4.00
2018-07-27T13:14:16.555Z,4.20
2018-07-27T13:16:44.826Z,4.40
2018-07-27T13:19:13.865Z,4.37
2018-07-27T13:21:42.216Z,4.40
2018-07-27T13:24:10.841Z,4.07
2018-07-27T13:26:39.173Z,4.30
2018-07-27T13:29:07.379Z,4.30
2018-07-27T13:31:57.600Z,4.13
2018-07-27T13:34:40.667Z,4.00
2018-07-27T13:37:08.812Z,4.20
2018-07-27T13:39:37.609Z,4.03
2018-07-27T13:42:06.713Z,4.30
2018-07-27T13:44:36.312Z,4.10
2018-07-27T13:47:05.227Z,4.00
2018-07-27T13:49:33.486Z,3.73
2018-07-27T13:52:01.908Z,3.73
2018-07-27T13:54:31.230Z,4.10
2018-07-27T13:56:59.603Z,4.13
2018-07-27T13:59:28.249Z,3.70
2018-07-27T14:01:56.973Z,3.80
2018-07-27T14:04:25.019Z,3.60
2018-07-27T14:06:55.328Z,4.17
2018-07-27T14:09:23.628Z,3.70
2018-07-27T14:11:51.900Z,4.00
2018-07-27T14:14:20.163Z,3.90
2018-07-27T14:16:48.413Z,3.60
2018-07-27T14:19:17.589Z,3.47
2018-07-27T14:21:45.908Z,3.77
2018-07-27T14:24:14.661Z,3.90
2018-07-27T14:26:43.141Z,3.43
2018-07-27T14:29:11.422Z,3.67
2018-07-27T14:31:39.477Z,3.77
2018-07-27T14:34:08.129Z,3.80
2018-07-27T14:36:36.436Z,3.80
2018-07-27T14:39:08.631Z,3.50
2018-07-27T14:41:37.283Z,3.90
2018-07-27T14:44:05.652Z,3.73
2018-07-27T14:46:34.121Z,6.00
2018-07-27T14:49:02.404Z,6.97
2018-07-27T14:51:30.706Z,4.17
2018-07-27T14:53:58.989Z,6.50
2018-07-27T14:56:27.307Z,4.30
2018-07-27T14:58:55.560Z,3.93
2018-07-27T15:01:23.836Z,3.40
2018-07-27T15:03:52.136Z,3.67
2018-07-27T15:06:20.404Z,3.43
2018-07-27T15:08:48.670Z,3.40
2018-07-27T15:11:16.944Z,4.00
2018-07-27T15:13:45.208Z,3.57
2018-07-27T15:16:13.485Z,4.10
2018-07-27T15:18:42.504Z,3.83
2018-07-27T15:21:11.316Z,4.03
2018-07-27T15:23:39.696Z,3.30
2018-07-27T15:26:07.980Z,6.60
2018-07-27T15:28:36.425Z,4.20
2018-07-27T15:31:04.737Z,3.40
2018-07-27T15:33:33.209Z,4.00
2018-07-27T15:36:01.564Z,3.07
2018-07-27T15:38:29.900Z,3.03
2018-07-27T15:40:58.277Z,3.50
2018-07-27T15:43:26.535Z,3.17
2018-07-27T15:45:54.852Z,3.33
2018-07-27T15:48:23.651Z,2.90
2018-07-27T15:50:51.865Z,3.83
2018-07-27T15:53:20.120Z,3.43
2018-07-27T15:55:48.391Z,3.83
2018-07-27T15:58:16.644Z,3.60
2018-07-27T16:00:44.947Z,3.20
2018-07-27T16:03:13.067Z,3.80
2018-07-27T16:05:41.405Z,3.83
2018-07-27T16:08:09.691Z,3.37
2018-07-27T16:10:37.968Z,3.50
2018-07-27T16:13:06.020Z,4.00
2018-07-27T16:15:34.287Z,3.43
2018-07-27T16:18:02.570Z,3.63
2018-07-27T16:20:30.904Z,3.10
2018-07-27T16:22:59.356Z,3.87
2018-07-27T16:25:27.375Z,4.00
2018-07-27T16:27:55.714Z,3.50
2018-07-27T16:30:23.782Z,3.77
2018-07-27T16:32:52.085Z,3.37
2018-07-27T16:35:20.067Z,3.57
2018-07-27T16:37:48.191Z,3.70
2018-07-27T16:40:16.480Z,3.90
2018-07-27T16:42:44.980Z,3.60
2018-07-27T16:45:13.266Z,3.53
2018-07-27T16:47:41.554Z,3.73
2018-07-27T16:50:09.819Z,3.70
2018-07-27T16:52:38.113Z,3.10
2018-07-27T16:55:06.432Z,3.33
2018-07-27T16:57:34.744Z,3.60
2018-07-27T17:00:03.070Z,3.30
2018-07-27T17:02:32.357Z,3.50
2018-07-27T17:05:03.318Z,3.63
2018-07-27T17:07:46.494Z,3.73
2018-07-27T17:10:14.779Z,3.73
2018-07-27T17:12:43.196Z,3.40
2018-07-27T17:15:11.513Z,4.53
2018-07-27T17:17:39.839Z,4.07
2018-07-27T17:20:08.652Z,4.17
2018-07-27T17:22:37.268Z,3.90
2018-07-27T17:25:05.566Z,4.47
2018-07-27T17:27:34.026Z,4.50
2018-07-27T17:30:02.316Z,4.60
2018-07-27T17:32:30.684Z,4.70
2018-07-27T17:34:58.712Z,4.63
2018-07-27T17:37:27.066Z,4.47
2018-07-27T17:39:55.407Z,4.93
2018-07-27T17:42:23.716Z,4.47
2018-07-27T17:44:51.979Z,4.60
2018-07-27T17:47:20.547Z,5.50
2018-07-27T17:49:48.820Z,4.80
2018-07-27T17:52:17.087Z,4.87
2018-07-27T17:54:45.156Z,4.93
2018-07-27T17:57:13.384Z,5.20
2018-07-27T17:59:41.649Z,4.43
2018-07-27T18:02:09.641Z,5.23
2018-07-27T18:04:37.923Z,4.73
2018-07-27T18:07:05.975Z,4.93
2018-07-27T18:09:34.231Z,4.97
2018-07-27T18:12:02.490Z,5.57
2018-07-27T18:14:30.788Z,5.77
2018-07-27T18:16:59.047Z,4.67
2018-07-27T18:19:27.075Z,5.17
2018-07-27T18:21:55.373Z,4.97
2018-07-27T18:24:23.654Z,5.13
2018-07-27T18:26:51.941Z,5.30
2018-07-27T18:29:20.234Z,4.77
2018-07-27T18:31:48.535Z,5.10
2018-07-27T18:34:16.679Z,4.97
2018-07-27T18:36:45.832Z,4.73
2018-07-27T18:39:14.161Z,4.43
2018-07-27T18:41:42.152Z,4.87
2018-07-27T18:44:10.425Z,5.23
2018-07-27T18:46:39.593Z,5.00
2018-07-27T18:49:07.892Z,4.80
2018-07-27T18:51:37.130Z,4.77
2018-07-27T18:54:05.384Z,4.30
2018-07-27T18:56:33.852Z,4.93
2018-07-27T18:59:01.836Z,4.63
2018-07-27T19:01:30.170Z,5.00
2018-07-27T19:03:58.427Z,4.87
2018-07-27T19:06:26.843Z,4.20
2018-07-27T19:08:55.327Z,4.73
2018-07-27T19:11:24.211Z,4.70
2018-07-27T19:13:53.177Z,4.60
2018-07-27T19:16:21.466Z,4.30
2018-07-27T19:18:49.769Z,4.70
2018-07-27T19:21:18.093Z,4.13
2018-07-27T19:23:46.389Z,4.67
2018-07-27T19:26:14.650Z,4.90
2018-07-27T19:28:42.915Z,4.43
2018-07-27T19:31:11.314Z,4.60
2018-07-27T19:33:39.576Z,4.40
2018-07-27T19:36:07.656Z,3.60
2018-07-27T19:38:35.810Z,3.93
2018-07-27T19:41:05.137Z,4.80
2018-07-27T19:43:33.420Z,5.00
2018-07-27T19:46:01.768Z,4.13
2018-07-27T19:48:30.138Z,4.80
2018-07-27T19:50:58.461Z,4.27
2018-07-27T19:53:27.078Z,4.07
2018-07-27T19:55:55.443Z,4.40
2018-07-27T19:58:23.739Z,3.97
2018-07-27T20:00:52.072Z,4.60
2018-07-27T20:03:20.343Z,3.90
2018-07-27T20:05:48.628Z,3.80
2018-07-27T20:08:17.019Z,3.73
2018-07-27T20:10:45.544Z,4.00
2018-07-27T20:13:13.790Z,4.23
2018-07-27T20:15:42.080Z,4.00
2018-07-27T20:18:10.400Z,4.00
2018-07-27T20:20:38.836Z,3.50
2018-07-27T20:23:07.095Z,3.87
2018-07-27T20:25:35.384Z,4.07
2018-07-27T20:28:03.415Z,3.87
2018-07-27T20:30:31.807Z,4.03
2018-07-27T20:33:00.441Z,4.33
2018-07-27T20:35:28.724Z,3.90
2018-07-27T20:37:56.787Z,4.07
2018-07-27T20:40:25.081Z,4.13
2018-07-27T20:42:53.350Z,4.37
2018-07-27T20:45:21.728Z,3.47
2018-07-27T20:47:49.982Z,3.67
2018-07-27T20:50:18.558Z,4.00
2018-07-27T20:52:47.658Z,4.30
2018-07-27T20:55:15.943Z,3.93
2018-07-27T20:57:44.200Z,4.30
2018-07-27T21:00:13.900Z,3.67
2018-07-27T21:02:43.636Z,3.37
2018-07-27T21:05:12.858Z,3.60
2018-07-27T21:07:41.948Z,3.50
2018-07-27T21:10:10.852Z,3.70
2018-07-27T21:12:39.463Z,3.87
2018-07-27T21:15:07.780Z,4.10
2018-07-27T21:17:36.248Z,3.70
2018-07-27T21:20:05.349Z,4.20
2018-07-27T21:22:33.604Z,6.00
2018-07-27T21:25:01.872Z,6.80
2018-07-27T21:27:29.924Z,7.40
2018-07-27T21:29:58.307Z,7.87
2018-07-27T21:32:27.079Z,7.70
2018-07-27T21:34:55.421Z,7.90
2018-07-27T21:37:23.748Z,7.40
2018-07-27T21:39:52.310Z,7.23
2018-07-27T21:42:20.315Z,7.03
2018-07-27T21:44:48.574Z,6.30
2018-07-27T21:47:16.864Z,6.00
2018-07-27T21:49:45.135Z,6.30
2018-07-27T21:52:13.412Z,7.20
2018-07-27T21:54:41.676Z,6.60
2018-07-27T21:57:09.964Z,6.57
2018-07-27T21:59:38.553Z,6.40
2018-07-27T22:02:06.836Z,6.73
2018-07-27T22:04:35.175Z,7.10
2018-07-27T22:07:03.472Z,6.73
2018-07-27T22:09:31.769Z,6.87
2018-07-27T22:12:00.048Z,6.17
2018-07-27T22:14:28.381Z,6.70
2018-07-27T22:17:07.631Z,6.13
2018-07-27T22:19:35.944Z,5.83
2018-07-27T22:22:04.200Z,6.93
2018-07-27T22:24:32.504Z,6.10
2018-07-27T22:27:00.777Z,6.47
2018-07-27T22:29:29.064Z,7.90
2018-07-27T22:31:57.337Z,7.67
2018-07-27T22:34:25.362Z,7.83
2018-07-27T22:36:53.660Z,6.30
2018-07-27T22:39:21.952Z,6.57
2018-07-27T22:41:50.239Z,7.30
2018-07-27T22:44:18.879Z,8.30
2018-07-27T22:46:47.211Z,7.07
2018-07-27T22:49:15.621Z,6.63
2018-07-27T22:51:43.900Z,7.90
2018-07-27T22:54:12.545Z,8.77
2018-07-27T22:56:40.557Z,8.20
2018-07-27T22:59:08.832Z,7.67
2018-07-27T23:01:37.160Z,8.07
2018-07-27T23:04:05.936Z,7.47
2018-07-27T23:06:34.202Z,7.67
2018-07-27T23:09:02.516Z,7.97
2018-07-27T23:11:30.804Z,7.60
2018-07-27T23:13:59.096Z,8.33
2018-07-27T23:16:27.404Z,7.80
2018-07-27T23:18:55.684Z,8.40
2018-07-27T23:21:24.044Z,8.33
2018-07-27T23:23:52.338Z,7.67
2018-07-27T23:26:20.625Z,7.50
2018-07-27T23:28:48.925Z,7.47
2018-07-27T23:31:17.223Z,7.37
2018-07-27T23:33:48.633Z,7.07
2018-07-27T23:36:16.948Z,7.67
2018-07-27T23:38:45.237Z,8.10
2018-07-27T23:41:13.853Z,6.77
2018-07-27T23:43:42.160Z,7.23
2018-07-27T23:46:10.453Z,8.30
2018-07-27T23:48:38.744Z,7.30
2018-07-27T23:51:08.248Z,6.63
2018-07-27T23:53:37.260Z,6.97
2018-07-27T23:56:05.564Z,7.10
2018-07-27T23:58:33.859Z,6.83
